Flight Track Log - Related Links

Times and Time Zones

All times are in EDT time to prevent confusion due to time zone crossing. See the FLG3657 flight status page for this flight to view local times or setup timezone preferences in your user account.

Time Position Orientation Groundspeed Altitude Reporting Facility
EDT Latitude Longitude Course Direction KTS MPH feet Rate Location/Type
Fri 04:54:15 PM 42.2011 -83.3750 North 164 189 1,300  Level Cleveland Center
Fri 04:55:16 PM 42.1953 -83.4447 264° West 212 244 3,500 1,612 Climbing Cleveland Center
Fri 04:56:29 PM 42.2178 -83.5439 287° West 275 316 4,900 709 Climbing Cleveland Center
Fri 04:57:00 PM 42.5094 -83.3500 North  Level FlightAware Approximate
Fri 04:57:23 PM 42.2553 -83.6242 302° West 275 316 5,000  Level Cleveland Center
Fri 04:58:00 PM 42.5867 -83.3500 North  Level FlightAware Approximate
Fri 04:58:18 PM 42.2928 -83.7047 302° West 278 320 5,700  Level Cleveland Center
Fri 04:59:00 PM 42.6641 -83.3500 North  Level FlightAware Approximate
Fri 04:59:25 PM 42.3628 -83.7333 343° North 267 307 8,800  Level Cleveland Center
Fri 05:00:32 PM 42.4500 -83.6758 26° Northeast 332 382 10,000 590 Climbing Cleveland Center
Fri 05:01:27 PM 42.5144 -83.5972 42° Northeast 357 411 10,000  Level Cleveland Center
Fri 05:02:22 PM 42.5692 -83.4983 53° Northeast 358 412 10,000  Level Cleveland Center
Fri 05:04:00 PM 42.6687 -83.4515 19° North  Level FlightAware Approximate
Fri 05:11:00 PM 43.1012 -83.4241 309° West  Level FlightAware Approximate
Fri 05:12:00 PM 43.1447 -83.4892 314° West  Level FlightAware Approximate
Fri 05:13:00 PM 43.1898 -83.5523 314° West  Level FlightAware Approximate
Fri 05:14:00 PM 43.2336 -83.6171 312° West  Level FlightAware Approximate
Fri 05:15:00 PM 43.2771 -83.6824 313° West  Level FlightAware Approximate
Fri 05:16:00 PM 43.3207 -83.7477 313° West  Level FlightAware Approximate
Fri 05:17:00 PM 43.3632 -83.8132 324° Northwest  Level FlightAware Approximate
Fri 05:18:00 PM 43.4058 -83.8782 305° West  Level FlightAware Approximate
Fri 05:19:00 PM 43.4434 -83.9501 310° West  Level FlightAware Approximate

Login

Don't have an account? Register now (free) for customized features, flight alerts, and more!